Latest Weather Observations for Warragul (Nilma North)

IDV60801

Issued at 2:32 pm EDT Friday 24 February 2017 (issued every 30 minutes, with the page automatically refreshed every 10 minutes)

About weather observations | Map of weather stations | Latest weather observations for VIC | Other Formats
Station Details ID: 085313 Name: NILMA NORTH (WARRAGUL) Lat: -38.13 Lon: 145.99 Height: 134.11 m
Data from the previous 72 hours. | See also: Recent months for locations in Victoria
Date/Time
EDT
Temp
°C
App
Temp
°C
Dew
Point
°C
Rel
Hum
%
Delta-T
°C
Wind Press
QNH
hPa
Press
MSL
hPa
Rain since
9am
mm
Dir  Spd
km/h
Gust
km/h
Spd
kts
Gust
kts
24/02:30pm 18.7 16.2 8.1 50 5.5 SW 11 17 6 9 1024.6 1024.2 0.0
24/02:00pm 18.8 16.8 8.5 51 5.3 SW 9 17 5 9 1024.6 1024.2 0.0
24/01:30pm 18.5 16.2 9.0 54 5.0 WSW 11 20 6 11 1024.6 1024.2 0.0
24/01:00pm 18.3 16.3 8.8 54 4.9 SW 9 19 5 10 1024.5 1024.1 0.0
24/12:30pm 18.2 16.6 10.1 59 4.3 WSW 9 17 5 9 1024.6 1024.2 0.0
24/12:00pm 17.7 16.1 10.1 61 4.0 WSW 9 15 5 8 1024.7 1024.3 0.0
24/11:30am 18.0 16.7 9.9 59 4.3 WSW 7 15 4 8 1024.8 1024.4 0.0
24/11:00am 17.6 15.9 9.8 60 4.1 WSW 9 17 5 9 1024.7 1024.3 0.0
24/10:30am 18.0 17.0 11.1 64 3.8 S 7 13 4 7 1024.6 1024.2 0.0
24/10:00am 16.5 14.9 10.1 66 3.4 SW 9 13 5 7 1024.6 1024.2 0.0
24/09:30am 16.0 15.3 11.4 74 2.5 SW 6 9 3 5 1024.4 1024.0 0.0
24/09:00am 15.4 15.3 12.0 80 1.8 SW 4 9 2 5 1024.3 1023.9 0.2
24/08:30am 14.8 14.4 12.5 86 1.3 W 6 7 3 4 1024.0 1023.6 0.2
24/08:00am 14.7 14.5 12.9 89 1.0 W 6 9 3 5 1023.7 1023.3 0.2
24/07:30am 14.4 14.1 12.8 90 0.9 W 6 7 3 4 1023.5 1023.1 0.2
24/07:00am 14.4 14.2 13.0 91 0.8 W 6 9 3 5 1023.2 1022.8 0.2
24/06:30am 14.3 14.1 13.0 92 0.7 W 6 7 3 4 1022.9 1022.5 0.2
24/06:00am 14.3 14.5 13.0 92 0.7 WNW 4 6 2 3 1022.6 1022.2 0.2
24/05:30am 14.3 14.5 13.0 92 0.7 WNW 4 6 2 3 1022.3 1021.9 0.2
24/05:00am 14.4 14.6 13.0 91 0.8 WNW 4 6 2 3 1022.1 1021.7 0.2
24/04:30am 14.5 14.7 13.0 91 0.8 W 4 6 2 3 1022.3 1021.9 0.2
24/04:00am 14.8 14.7 13.2 90 0.9 WSW 6 11 3 6 1022.3 1021.9 0.2
24/03:30am 15.0 15.5 14.0 94 0.6 W 4 6 2 3 1022.4 1022.0 0.2
24/03:00am 15.0 15.5 14.0 94 0.6 W 4 6 2 3 1022.4 1022.0 0.0
24/02:30am 15.1 16.4 14.1 94 0.6 CALM 0 0 0 0 1022.4 1022.0 0.0
24/02:00am 15.1 16.0 14.0 93 0.6 W 2 2 1 1 1022.8 1022.4 0.0
24/01:30am 15.4 16.0 14.3 93 0.6 WNW 4 6 2 3 1023.0 1022.6 0.0
24/01:00am 15.4 16.3 13.9 91 0.8 NW 2 6 1 3 1022.9 1022.5 0.0
24/12:30am 15.8 16.2 13.8 88 1.1 WSW 4 6 2 3 1023.0 1022.6 0.0
24/12:00am 16.2 16.5 13.5 84 1.5 WSW 4 6 2 3 1022.8 1022.4 0.0
 
Date/Time
EDT
Temp
°C
App
Temp
°C
Dew
Point
°C
Rel
Hum
%
Delta-T
°C
Wind Press
QNH
hPa
Press
MSL
hPa
Rain since
9am
mm
Dir  Spd
km/h
Gust
km/h
Spd
kts
Gust
kts
23/11:30pm 16.0 16.4 13.7 86 1.3 W 4 6 2 3 1022.6 1022.2 0.0
23/11:00pm 15.6 15.9 13.4 87 1.2 W 4 6 2 3 1022.7 1022.3 0.0
23/10:30pm 15.1 15.0 12.2 83 1.6 WNW 4 6 2 3 1022.6 1022.2 0.0
23/10:00pm 15.7 15.2 12.6 82 1.7 W 7 9 4 5 1022.3 1021.9 0.0
23/09:30pm 16.0 15.9 12.0 77 2.2 W 4 7 2 4 1022.1 1021.7 0.0
23/09:00pm 17.4 16.9 12.5 73 2.7 WSW 7 13 4 7 1021.5 1021.1 0.0
23/08:30pm 18.4 17.9 12.8 70 3.2 SW 7 13 4 7 1020.6 1020.2 0.0
23/08:00pm 19.7 19.4 13.2 66 3.7 SW 7 13 4 7 1020.0 1019.6 0.0
23/07:30pm 21.5 20.1 13.4 60 4.7 WSW 13 20 7 11 1019.4 1019.0 0.0
23/07:00pm 22.8 21.4 13.3 55 5.5 WSW 13 22 7 12 1018.8 1018.4 0.0
23/06:30pm 23.3 21.7 12.9 52 6.0 WSW 13 24 7 13 1018.5 1018.1 0.0
23/06:00pm 23.7 21.9 13.3 52 6.1 WSW 15 24 8 13 1018.2 1017.8 0.0
23/05:30pm 24.1 22.1 12.7 49 6.6 WSW 15 24 8 13 1017.7 1017.3 0.0
23/05:00pm 24.6 22.3 12.9 48 6.8 W 17 30 9 16 1017.4 1017.0 0.0
23/04:30pm 24.8 22.6 13.4 49 6.7 W 17 28 9 15 1017.5 1017.1 0.0
23/04:00pm 23.9 21.5 12.8 49 6.4 W 17 30 9 16 1017.6 1017.2 0.0
23/03:30pm 23.6 20.9 13.5 53 5.9 W 20 37 11 20 1017.6 1017.2 0.0
23/03:00pm 23.7 21.1 13.3 52 6.1 WSW 19 28 10 15 1017.7 1017.3 0.0
23/02:30pm 24.1 21.1 13.6 52 6.2 W 22 39 12 21 1017.6 1017.2 0.0
23/02:00pm 23.8 21.1 13.6 52 6.0 W 20 33 11 18 1017.7 1017.3 0.0
23/01:30pm 23.6 20.4 13.2 52 6.1 W 22 32 12 17 1017.8 1017.4 0.0
23/01:00pm 21.9 18.5 12.5 55 5.4 W 22 33 12 18 1017.9 1017.5 0.0
23/12:30pm 22.7 19.3 12.6 53 5.8 W 22 35 12 19 1017.9 1017.5 0.0
23/12:00pm 22.3 19.5 13.1 56 5.3 W 20 35 11 19 1017.9 1017.5 0.0
23/11:30am 21.6 19.2 13.8 61 4.5 W 19 28 10 15 1018.0 1017.6 0.0
23/11:00am 21.1 19.0 13.5 62 4.4 W 17 30 9 16 1017.9 1017.5 0.0
23/10:30am 19.7 17.3 12.7 64 4.0 WSW 17 26 9 14 1017.7 1017.3 0.0
23/10:00am 19.4 16.9 12.2 63 4.0 WSW 17 22 9 12 1017.4 1017.0 0.0
23/09:30am 19.2 17.0 12.2 64 3.9 W 15 24 8 13 1017.2 1016.8 0.0
23/09:00am 19.4 18.2 12.7 65 3.8 W 11 19 6 10 1016.8 1016.4 0.0
23/08:30am 17.9 16.9 12.4 70 3.1 WNW 9 17 5 9 1016.4 1016.0 0.0
23/08:00am 15.3 14.6 11.5 78 2.1 NW 6 9 3 5 1015.9 1015.5 0.0
23/07:30am 13.2 13.5 10.9 86 1.2 CALM 0 2 0 1 1015.2 1014.8 0.0
23/07:00am 12.6 12.7 10.3 86 1.2 CALM 0 0 0 0 1014.6 1014.2 0.0
23/06:30am 12.8 12.6 10.3 85 1.3 NW 2 2 1 1 1014.2 1013.7 0.0
23/06:00am 12.9 13.0 10.1 83 1.5 CALM 0 0 0 0 1013.8 1013.3 0.0
23/05:30am 13.5 13.8 10.9 84 1.4 CALM 0 0 0 0 1013.6 1013.1 0.0
23/05:00am 13.8 13.7 9.6 76 2.2 CALM 0 0 0 0 1013.6 1013.1 0.0
23/04:30am 15.0 15.2 10.6 75 2.3 CALM 0 0 0 0 1013.2 1012.8 0.0
23/04:00am 14.8 14.1 10.0 73 2.5 N 4 6 2 3 1013.0 1012.6 0.0
23/03:30am 15.6 15.1 10.6 72 2.7 NNW 4 6 2 3 1013.1 1012.7 0.0
23/03:00am 16.6 16.0 10.5 67 3.3 NNW 4 7 2 4 1013.0 1012.6 0.0
23/02:30am 15.6 14.8 11.2 75 2.4 NW 6 9 3 5 1013.0 1012.6 0.0
23/02:00am 16.3 15.6 11.9 75 2.4 NNW 7 11 4 6 1012.6 1012.2 0.0
23/01:30am 16.9 16.3 11.6 71 2.9 W 6 11 3 6 1012.3 1011.9 0.0
23/01:00am 18.2 14.6 12.0 67 3.4 W 22 30 12 16 1011.8 1011.4 0.0
23/12:30am 17.5 16.7 10.9 65 3.6 W 6 9 3 5 1010.9 1010.5 0.0
23/12:00am 17.8 16.8 10.9 64 3.7 ESE 7 22 4 12 1009.9 1009.5 0.0
 
Date/Time
EDT
Temp
°C
App
Temp
°C
Dew
Point
°C
Rel
Hum
%
Delta-T
°C
Wind Press
QNH
hPa
Press
MSL
hPa
Rain since
9am
mm
Dir  Spd
km/h
Gust
km/h
Spd
kts
Gust
kts
22/11:30pm 18.7 17.2 10.5 59 4.4 E 9 13 5 7 1009.7 1009.3 0.0
22/11:00pm 19.7 18.6 10.1 54 5.2 E 6 6 3 3 1009.9 1009.5 0.0
22/10:30pm 20.5 18.8 10.0 51 5.7 E 9 15 5 8 1010.1 1009.7 0.0
22/10:00pm 21.4 17.8 9.9 48 6.3 E 19 28 10 15 1009.9 1009.5 0.0
22/09:30pm 22.6 18.7 9.4 43 7.2 E 20 32 11 17 1009.9 1009.5 0.0
22/09:00pm 22.7 20.0 10.5 46 6.8 E 15 22 8 12 1010.0 1009.6 0.0
22/08:30pm 23.4 21.3 11.1 46 6.9 E 13 20 7 11 1009.9 1009.5 0.0
22/08:00pm 25.4 23.7 9.7 37 8.7 NE 9 13 5 7 1009.7 1009.3 0.0
22/07:30pm 26.4 25.6 10.9 38 8.8 ENE 6 9 3 5 1009.8 1009.4 0.0
22/07:00pm 28.6 27.3 7.8 27 11.3 N 4 7 2 4 1010.1 1009.7 0.0
22/06:30pm 29.4 26.3 7.3 25 12.0 N 13 20 7 11 1010.0 1009.6 0.0
22/06:00pm 30.1 27.7 8.5 26 12.0 NNW 11 19 6 10 1010.3 1009.9 0.0
22/05:30pm 30.4 27.4 7.6 24 12.5 N 13 22 7 12 1010.3 1009.9 0.0
22/05:00pm 30.4 27.0 7.6 24 12.5 N 15 26 8 14 1010.3 1009.9 0.0
22/04:30pm 30.2 27.3 8.0 25 12.2 N 13 24 7 13 1010.8 1010.4 0.0
22/04:00pm 30.1 28.3 9.6 28 11.6 N 9 19 5 10 1011.3 1010.9 0.0
22/03:30pm 29.8 27.6 9.3 28 11.5 N 11 20 6 11 1011.8 1011.4 0.0
22/03:00pm 29.5 27.5 10.1 30 11.0 NNE 11 20 6 11 1012.4 1012.0 0.0
22/02:30pm 28.9 27.4 9.1 29 11.0 W 7 13 4 7 1013.2 1012.8 0.0
22/02:00pm 28.7 26.9 9.4 30 10.8 NW 9 19 5 10 1013.7 1013.2 0.0
22/01:30pm 28.2 26.8 9.5 31 10.5 NNW 7 17 4 9 1014.0 1013.5 0.0
22/01:00pm 27.7 25.2 8.1 29 10.7 NNW 11 19 6 10 1014.4 1013.9 0.0
22/12:30pm 25.8 25.4 12.3 43 7.8 ESE 6 11 3 6 1014.7 1014.3 0.0
22/12:00pm 24.7 24.6 13.3 49 6.7 E 6 9 3 5 1015.0 1014.6 0.0
22/11:30am 22.8 22.3 13.8 57 5.3 E 9 15 5 8 1015.5 1015.1 0.0
22/11:00am 21.2 20.6 13.4 61 4.5 E 9 15 5 8 1015.7 1015.3 0.0
22/10:30am 19.1 17.6 11.9 63 4.0 E 11 17 6 9 1016.2 1015.8 0.0
22/10:00am 17.6 16.3 12.5 72 2.8 E 11 15 6 8 1016.5 1016.1 0.0
22/09:30am 16.4 14.9 12.0 75 2.4 E 11 17 6 9 1016.6 1016.2 0.0
22/09:00am 15.4 13.9 11.8 79 2.0 E 11 19 6 10 1016.8 1016.4 0.0
22/08:30am 13.8 12.0 10.8 82 1.6 E 11 17 6 9 1017.0 1016.6 0.0
22/08:00am 13.0 11.6 10.9 87 1.1 ENE 9 15 5 8 1017.0 1016.6 0.0
22/07:30am 12.0 9.8 10.7 92 0.7 E 13 20 7 11 1016.7 1016.3 0.0
22/07:00am 11.3 9.0 10.4 94 0.5 ENE 13 20 7 11 1016.6 1016.2 0.0
22/06:30am 11.4 9.1 10.5 94 0.5 E 13 20 7 11 1016.5 1016.1 0.0
22/06:00am 11.5 9.6 10.6 94 0.5 E 11 17 6 9 1016.6 1016.2 0.0
22/05:30am 11.6 9.7 10.5 93 0.6 E 11 19 6 10 1016.7 1016.3 0.0
22/05:00am 11.6 9.7 10.5 93 0.6 ENE 11 17 6 9 1016.8 1016.4 0.0
22/04:30am 11.8 10.7 10.5 92 0.7 E 7 13 4 7 1016.9 1016.5 0.0
22/04:00am 11.9 10.8 10.6 92 0.7 E 7 9 4 5 1017.2 1016.8 0.0
22/03:30am 12.1 11.0 10.7 91 0.7 E 7 13 4 7 1017.4 1017.0 0.0
22/03:00am 12.3 10.8 10.7 90 0.8 E 9 17 5 9 1017.6 1017.2 0.0
22/02:30am 12.6 10.5 11.0 90 0.8 E 13 17 7 9 1017.8 1017.4 0.0
22/02:00am 12.5 11.0 10.7 89 0.9 E 9 15 5 8 1018.1 1017.7 0.0
22/01:30am 13.1 11.3 11.0 87 1.1 ESE 11 15 6 8 1018.6 1018.2 0.0
22/01:00am 13.3 11.5 11.0 86 1.2 E 11 20 6 11 1019.0 1018.6 0.0
22/12:30am 13.7 11.6 11.2 85 1.3 E 13 20 7 11 1019.2 1018.8 0.0
22/12:00am 14.1 11.7 11.3 83 1.5 E 15 24 8 13 1019.3 1018.9 0.0
 
Date/Time
EDT
Temp
°C
App
Temp
°C
Dew
Point
°C
Rel
Hum
%
Delta-T
°C
Wind Press
QNH
hPa
Press
MSL
hPa
Rain since
9am
mm
Dir  Spd
km/h
Gust
km/h
Spd
kts
Gust
kts
21/11:30pm 14.4 12.0 11.4 82 1.6 E 15 26 8 14 1019.5 1019.1 0.0
21/11:00pm 14.8 12.4 11.4 80 1.8 E 15 24 8 13 1019.6 1019.2 0.0
21/10:30pm 15.3 12.5 11.5 78 2.1 E 17 28 9 15 1019.8 1019.4 0.0
21/10:00pm 15.9 13.2 11.7 76 2.3 E 17 28 9 15 1019.8 1019.4 0.0
21/09:30pm 15.9 13.6 11.7 76 2.3 ESE 15 24 8 13 1019.5 1019.1 0.0
21/09:00pm 15.6 15.3 11.4 76 2.3 ESE 4 6 2 3 1019.2 1018.8 0.0
21/08:30pm 17.2 16.8 11.2 68 3.3 SSE 4 7 2 4 1018.9 1018.5 0.0
21/08:00pm 18.2 16.9 11.3 64 3.8 SSE 9 11 5 6 1018.7 1018.3 0.0
21/07:30pm 19.8 18.9 11.3 58 4.7 S 7 15 4 8 1018.5 1018.1 0.0
21/07:00pm 21.4 20.0 9.0 45 6.6 SSW 6 9 3 5 1018.2 1017.8 0.0
21/06:30pm 22.3 20.9 8.8 42 7.2 SW 6 9 3 5 1018.0 1017.6 0.0
21/06:00pm 22.7 21.0 7.7 38 7.9 SSW 6 9 3 5 1018.1 1017.7 0.0
21/05:30pm 22.4 20.9 8.5 41 7.4 SW 6 9 3 5 1018.4 1018.0 0.0
21/05:00pm 22.4 20.7 8.5 41 7.4 WSW 7 11 4 6 1018.5 1018.1 0.0
21/04:30pm 22.4 21.6 9.6 44 7.0 WSW 4 9 2 5 1018.8 1018.4 0.0
21/04:00pm 21.6 20.0 8.1 42 7.1 W 6 15 3 8 1019.2 1018.8 0.0
21/03:30pm 21.1 19.7 9.4 47 6.3 SW 7 13 4 7 1019.4 1019.0 0.0
21/03:00pm 21.5 19.7 9.4 46 6.5 WNW 9 17 5 9 1019.7 1019.3 0.0

Other Formats:

Comma delimited format used in spreadsheet applications
http://www.bom.gov.au/fwo/IDV60801/IDV60801.99806.axf

JavaScript Object Notation format (JSON) in row-major order
http://www.bom.gov.au/fwo/IDV60801/IDV60801.99806.json